Time;durP1;ratioP1;P1;durP2;ratioP2;P2;SDS_P1;SDS_P2;PMS_P1;PMS_P2;Temp;Humidity;BMP_temperature;BMP_pressure;BME280_temperature;BME280_humidity;BME280_pressure;Samples;Min_cycle;Max_cycle;Signal;HPM_P1;HPM_P2
2022/02/11 00:02:05;;;;;;;8.40;5.30;;;;;;;5.08;79.01;100235.44;130296;1270;107395;-81
2022/02/11 00:08:31;;;;;;;7.20;4.40;;;;;;;5.15;78.64;100232.16;130431;1271;108975;-82
2022/02/11 00:11:38;;;;;;;7.60;4.20;;;;;;;5.19;78.64;100230.19;130386;1271;107280;-81
2022/02/11 00:14:52;;;;;;;6.00;3.90;;;;;;;5.31;78.56;100230.73;130356;1271;108694;-81
2022/02/11 00:17:57;;;;;;;11.40;6.00;;;;;;;5.37;78.29;100237.80;130233;1269;109657;-79
2022/02/11 00:21:03;;;;;;;8.40;4.10;;;;;;;5.47;78.13;100236.86;130215;1269;108383;-80
2022/02/11 00:24:09;;;;;;;5.40;3.60;;;;;;;5.49;77.88;100249.05;130290;1271;108750;-80
2022/02/11 00:34:04;;;;;;;14.70;5.30;;;;;;;5.38;77.89;100240.07;130136;1268;108983;-81
2022/02/11 00:37:13;;;;;;;4.70;3.00;;;;;;;5.36;78.01;100236.52;130535;1268;108697;-81
2022/02/11 00:40:33;;;;;;;5.80;3.70;;;;;;;5.38;78.16;100243.88;130586;1268;108610;-81
2022/02/11 00:53:15;;;;;;;5.80;3.90;;;;;;;5.42;77.80;100250.45;130509;1267;106719;-80
2022/02/11 01:04:17;;;;;;;5.80;4.00;;;;;;;5.38;78.08;100249.17;130578;1267;109052;-83
2022/02/11 01:07:23;;;;;;;6.80;4.10;;;;;;;5.39;78.05;100248.08;130564;1267;108787;-82
2022/02/11 01:10:31;;;;;;;7.10;4.40;;;;;;;5.41;78.11;100248.95;130514;1267;107677;-82
2022/02/11 01:13:37;;;;;;;7.10;4.70;;;;;;;5.35;77.91;100252.11;130537;1266;108715;-83
2022/02/11 01:16:46;;;;;;;7.80;5.10;;;;;;;5.30;78.24;100246.98;130605;1268;108735;-81
2022/02/11 01:20:00;;;;;;;8.40;5.70;;;;;;;5.22;78.33;100243.01;130601;1268;108407;-83
2022/02/11 01:23:17;;;;;;;10.70;5.90;;;;;;;5.21;78.35;100242.95;130652;1268;109205;-81
2022/02/11 01:26:35;;;;;;;8.90;5.40;;;;;;;5.22;78.45;100250.80;130664;1268;110046;-81
2022/02/11 01:30:20;;;;;;;9.60;6.20;;;;;;;5.30;78.42;100249.46;130666;1266;109723;-83
2022/02/11 01:33:51;;;;;;;10.00;7.00;;;;;;;5.41;78.35;100245.92;130573;1268;107873;-83
2022/02/11 01:37:16;;;;;;;10.80;6.70;;;;;;;5.38;78.39;100250.27;130500;1268;108535;-81
2022/02/11 01:44:03;;;;;;;8.00;5.70;;;;;;;5.20;78.63;100252.58;130694;1268;108857;-81
2022/02/11 01:47:53;;;;;;;11.40;6.60;;;;;;;5.20;78.83;100250.30;130637;1268;108493;-87
2022/02/11 01:54:36;;;;;;;8.40;6.20;;;;;;;5.27;78.52;100245.67;130537;1268;107875;-86
2022/02/11 02:01:33;;;;;;;9.90;6.50;;;;;;;5.27;78.67;100257.32;130655;1268;107613;-84
2022/02/11 02:12:19;;;;;;;9.60;6.30;;;;;;;5.10;78.80;100269.49;130498;1267;108857;-84
2022/02/11 02:16:04;;;;;;;9.00;6.20;;;;;;;5.05;79.31;100268.16;130584;1267;109024;-82
2022/02/11 02:22:53;;;;;;;10.70;6.50;;;;;;;4.97;79.39;100261.38;130538;1268;108756;-83
2022/02/11 02:26:09;;;;;;;10.10;6.30;;;;;;;4.97;79.12;100256.91;130555;1267;108764;-83
2022/02/11 03:00:09;;;;;;;9.70;6.50;;;;;;;5.27;78.38;100256.56;130557;1267;108854;-83
2022/02/11 03:17:45;;;;;;;9.40;6.30;;;;;;;5.40;78.49;100265.63;130643;1268;108759;-80
2022/02/11 03:51:31;;;;;;;9.70;6.30;;;;;;;5.52;78.28;100260.65;130632;1268;107784;-84
2022/02/11 03:58:32;;;;;;;10.80;7.00;;;;;;;5.44;78.47;100264.63;130744;1268;109114;-89
2022/02/11 04:22:59;;;;;;;13.50;8.40;;;;;;;5.67;78.17;100273.88;130382;1268;107821;-74
2022/02/11 04:57:00;;;;;;;10.90;6.50;;;;;;;6.09;78.03;100258.80;130499;1268;108579;-73
2022/02/11 05:00:11;;;;;;;11.50;7.50;;;;;;;6.08;77.81;100255.90;130452;1267;108532;-75
2022/02/11 05:03:17;;;;;;;9.00;6.50;;;;;;;6.04;77.80;100256.91;130455;1268;108637;-76
2022/02/11 05:06:23;;;;;;;28.90;18.00;;;;;;;6.02;77.82;100254.77;130587;1268;108723;-74
2022/02/11 05:09:29;;;;;;;16.90;10.10;;;;;;;6.02;77.62;100259.67;130439;1267;108751;-76
2022/02/11 05:12:35;;;;;;;29.50;17.50;;;;;;;6.04;77.71;100257.59;130568;1268;108870;-76
2022/02/11 05:15:41;;;;;;;12.40;8.70;;;;;;;6.06;77.66;100251.23;130434;1267;108952;-75
2022/02/11 05:18:46;;;;;;;10.80;7.80;;;;;;;6.09;77.77;100257.91;130256;1266;177326;-76
2022/02/11 05:21:52;;;;;;;12.40;8.30;;;;;;;6.10;77.47;100252.54;130495;1266;108858;-76
2022/02/11 05:24:58;;;;;;;33.80;21.50;;;;;;;6.08;77.51;100248.78;130458;1267;108648;-75
2022/02/11 05:28:05;;;;;;;32.00;19.20;;;;;;;6.06;77.44;100249.83;130408;1267;109095;-76
2022/02/11 05:31:10;;;;;;;132.30;53.20;;;;;;;6.04;77.54;100250.02;130432;1266;108758;-76
2022/02/11 05:34:15;;;;;;;45.40;19.10;;;;;;;5.99;77.52;100254.86;130471;1267;108905;-75
2022/02/11 05:37:23;;;;;;;34.70;15.70;;;;;;;5.95;77.60;100251.59;130569;1265;108749;-76
2022/02/11 05:40:29;;;;;;;45.30;19.40;;;;;;;5.91;77.58;100251.36;130795;1265;108490;-74
2022/02/11 05:43:35;;;;;;;25.90;12.00;;;;;;;5.88;77.59;100248.11;130605;1264;108744;-76
2022/02/11 05:46:40;;;;;;;38.10;16.70;;;;;;;5.89;77.75;100243.95;130450;1265;108918;-77
2022/02/11 05:49:46;;;;;;;48.70;21.00;;;;;;;5.92;77.61;100243.02;130617;1265;109026;-75
2022/02/11 05:52:51;;;;;;;28.30;13.30;;;;;;;5.95;77.54;100248.05;130596;1265;108772;-75
2022/02/11 05:55:57;;;;;;;17.00;9.40;;;;;;;5.97;77.55;100247.09;130518;1265;108725;-77
2022/02/11 05:59:02;;;;;;;16.80;10.10;;;;;;;5.98;77.41;100252.28;130412;1265;108887;-77
2022/02/11 06:02:07;;;;;;;18.00;11.20;;;;;;;5.98;77.48;100250.30;130428;1265;109155;-76
2022/02/11 06:05:16;;;;;;;13.40;8.90;;;;;;;5.96;77.32;100252.20;130413;1265;108951;-76
2022/02/11 06:08:23;;;;;;;12.10;8.30;;;;;;;5.95;77.33;100248.94;130545;1265;108544;-76
2022/02/11 06:11:29;;;;;;;13.50;8.10;;;;;;;5.93;77.31;100247.19;130619;1264;108410;-74
2022/02/11 06:14:38;;;;;;;13.00;9.00;;;;;;;5.89;77.55;100242.66;130542;1264;108848;-75
2022/02/11 06:17:43;;;;;;;14.40;7.70;;;;;;;5.86;77.34;100244.46;130645;1265;107671;-75
2022/02/11 06:20:49;;;;;;;12.30;7.70;;;;;;;5.85;77.53;100242.80;130617;1265;108912;-75
2022/02/11 06:23:56;;;;;;;14.70;9.10;;;;;;;5.88;77.49;100250.48;130710;1265;108730;-75
2022/02/11 06:27:01;;;;;;;13.20;8.80;;;;;;;5.94;77.52;100255.56;130655;1265;109217;-79
2022/02/11 06:30:09;;;;;;;12.80;8.00;;;;;;;5.99;77.35;100255.36;130542;1265;108746;-81
2022/02/11 06:33:15;;;;;;;12.20;8.30;;;;;;;6.02;77.36;100258.23;130574;1265;108669;-79
2022/02/11 06:36:20;;;;;;;87.30;47.60;;;;;;;6.04;77.22;100263.03;130575;1265;108851;-79
2022/02/11 06:39:26;;;;;;;29.00;17.60;;;;;;;6.07;77.17;100268.45;130512;1265;108715;-81
2022/02/11 06:42:32;;;;;;;53.80;30.70;;;;;;;6.09;77.23;100271.50;130435;1264;108834;-79
2022/02/11 06:45:37;;;;;;;66.00;38.70;;;;;;;6.09;77.29;100275.95;130428;1265;108602;-80
2022/02/11 06:48:44;;;;;;;87.00;47.20;;;;;;;6.08;77.25;100277.73;130436;1265;108898;-80
2022/02/11 06:51:49;;;;;;;65.10;38.00;;;;;;;6.09;77.52;100275.56;130392;1265;108639;-80
2022/02/11 06:54:55;;;;;;;20.60;13.10;;;;;;;6.16;77.37;100275.92;130387;1267;108729;-80
2022/02/11 06:58:00;;;;;;;21.10;13.10;;;;;;;6.23;77.45;100278.30;130406;1264;108845;-80
2022/02/11 07:01:05;;;;;;;20.10;12.40;;;;;;;6.31;77.27;100281.58;130410;1265;107649;-80
2022/02/11 07:04:11;;;;;;;25.10;14.40;;;;;;;6.35;77.33;100284.23;130412;1268;107663;-80
2022/02/11 07:07:16;;;;;;;48.00;24.20;;;;;;;6.39;76.96;100284.13;130329;1267;108934;-79
2022/02/11 07:10:21;;;;;;;76.10;33.40;;;;;;;6.38;77.19;100279.21;130352;1267;108865;-79
2022/02/11 07:13:27;;;;;;;137.10;58.50;;;;;;;6.39;77.07;100281.08;130342;1267;108601;-78
2022/02/11 07:16:32;;;;;;;52.10;24.10;;;;;;;6.41;77.19;100285.70;130302;1267;109025;-80
2022/02/11 07:19:37;;;;;;;483.10;227.70;;;;;;;6.40;77.19;100282.95;130277;1267;108725;-79
2022/02/11 07:22:43;;;;;;;349.50;139.10;;;;;;;6.40;77.26;100284.71;130337;1267;108802;-80
2022/02/11 07:25:48;;;;;;;390.30;161.30;;;;;;;6.42;77.11;100290.92;130287;1267;108315;-78
2022/02/11 07:28:54;;;;;;;265.30;98.60;;;;;;;6.45;77.15;100290.48;130346;1267;108674;-78
2022/02/11 07:31:59;;;;;;;180.40;101.00;;;;;;;6.50;77.12;100290.80;130318;1267;109024;-79
2022/02/11 07:35:05;;;;;;;44.90;24.90;;;;;;;6.56;77.09;100289.09;130275;1267;108712;-80
2022/02/11 07:38:10;;;;;;;32.10;19.70;;;;;;;6.62;77.21;100290.82;130335;1268;108786;-80
2022/02/11 07:41:15;;;;;;;24.00;15.50;;;;;;;6.70;77.36;100287.20;130353;1267;108776;-80
2022/02/11 07:44:21;;;;;;;25.40;15.50;;;;;;;6.76;77.38;100285.11;130349;1267;108531;-78
2022/02/11 07:47:27;;;;;;;25.10;16.40;;;;;;;6.82;77.37;100284.28;130298;1267;108851;-78
2022/02/11 07:50:33;;;;;;;29.50;20.10;;;;;;;6.86;77.37;100278.06;130367;1268;108829;-79
2022/02/11 07:53:38;;;;;;;22.80;15.60;;;;;;;6.92;77.19;100282.01;130339;1268;108735;-78
2022/02/11 07:56:43;;;;;;;20.40;13.70;;;;;;;6.98;77.40;100279.02;130312;1268;108810;-77
2022/02/11 07:59:49;;;;;;;18.30;11.60;;;;;;;7.05;77.34;100278.08;130308;1267;108261;-78
2022/02/11 08:02:54;;;;;;;21.10;12.30;;;;;;;7.18;77.05;100279.33;130276;1267;107718;-79
2022/02/11 08:06:00;;;;;;;18.40;13.60;;;;;;;7.28;77.10;100280.89;130357;1267;107432;-79
2022/02/11 08:09:05;;;;;;;17.00;12.10;;;;;;;7.38;77.03;100286.59;130321;1268;109028;-78
2022/02/11 08:12:13;;;;;;;20.20;13.10;;;;;;;7.46;76.97;100285.01;130309;1268;108662;-79
2022/02/11 08:15:18;;;;;;;20.70;13.40;;;;;;;7.51;77.03;100281.63;130350;1268;108949;-78
2022/02/11 08:18:23;;;;;;;20.10;14.10;;;;;;;7.53;76.95;100277.94;130294;1268;108893;-80
2022/02/11 08:21:29;;;;;;;20.60;14.80;;;;;;;7.52;76.69;100276.54;130362;1267;108719;-78
2022/02/11 08:24:34;;;;;;;21.30;14.50;;;;;;;7.51;76.76;100276.66;130207;1268;107414;-79
2022/02/11 08:27:40;;;;;;;20.80;14.80;;;;;;;7.49;76.81;100276.97;130326;1268;108061;-79
2022/02/11 08:30:49;;;;;;;26.10;15.80;;;;;;;7.47;77.06;100286.49;130298;1268;108867;-79
2022/02/11 08:33:55;;;;;;;22.90;14.10;;;;;;;7.42;76.90;100284.80;130305;1268;108735;-79
2022/02/11 08:37:00;;;;;;;20.70;14.10;;;;;;;7.42;77.08;100281.86;130296;1268;108782;-78
2022/02/11 08:40:07;;;;;;;21.50;13.10;;;;;;;7.44;77.20;100276.48;130305;1268;108680;-77
2022/02/11 08:43:13;;;;;;;26.40;16.80;;;;;;;7.51;77.09;100274.89;130319;1267;108833;-79
2022/02/11 08:46:21;;;;;;;24.60;16.40;;;;;;;7.59;77.09;100268.92;130318;1268;107430;-79
2022/02/11 08:49:26;;;;;;;23.20;15.50;;;;;;;7.64;77.06;100263.81;130286;1267;108659;-77
2022/02/11 08:52:32;;;;;;;21.60;15.50;;;;;;;7.71;77.34;100260.44;130308;1267;108881;-79
2022/02/11 08:55:38;;;;;;;24.40;16.30;;;;;;;7.77;77.21;100268.23;130344;1267;108881;-80
2022/02/11 08:58:43;;;;;;;18.60;13.20;;;;;;;7.77;77.02;100268.87;130345;1267;108675;-78
2022/02/11 09:01:49;;;;;;;20.10;14.10;;;;;;;7.72;76.76;100267.04;130321;1268;108657;-78
2022/02/11 09:04:54;;;;;;;29.50;18.30;;;;;;;7.70;76.96;100267.36;130325;1267;107480;-80
2022/02/11 09:08:02;;;;;;;88.80;42.90;;;;;;;7.68;76.78;100267.02;130277;1268;108691;-79
2022/02/11 09:11:09;;;;;;;27.50;15.20;;;;;;;7.67;76.72;100270.83;130303;1268;108671;-78
2022/02/11 09:14:14;;;;;;;120.00;58.10;;;;;;;7.70;76.54;100273.23;130314;1268;108416;-77
2022/02/11 09:17:20;;;;;;;82.50;42.00;;;;;;;7.79;76.88;100271.95;130331;1268;108627;-78
2022/02/11 09:20:26;;;;;;;113.70;60.70;;;;;;;7.87;76.78;100269.98;130330;1267;108822;-79
2022/02/11 09:23:31;;;;;;;121.70;66.40;;;;;;;7.94;76.53;100264.02;130348;1267;108700;-79
2022/02/11 09:26:37;;;;;;;95.70;57.10;;;;;;;7.94;76.16;100264.76;130341;1268;108671;-80
2022/02/11 09:29:42;;;;;;;42.70;28.80;;;;;;;7.93;76.34;100272.64;130359;1268;108956;-79
2022/02/11 09:32:51;;;;;;;35.80;21.60;;;;;;;7.95;76.30;100276.89;130302;1267;109104;-76
2022/02/11 09:35:56;;;;;;;58.70;36.20;;;;;;;7.90;76.18;100270.93;130312;1267;106989;-78
2022/02/11 09:39:03;;;;;;;31.70;19.90;;;;;;;7.88;76.18;100279.13;130282;1267;108981;-79
2022/02/11 09:42:10;;;;;;;32.60;22.60;;;;;;;7.87;76.07;100279.20;130347;1268;108538;-79
2022/02/11 09:45:18;;;;;;;25.20;16.90;;;;;;;7.82;76.39;100281.56;130356;1268;108498;-78
2022/02/11 09:48:24;;;;;;;31.00;20.40;;;;;;;7.81;76.15;100280.73;130332;1267;108739;-79
2022/02/11 09:51:30;;;;;;;23.60;16.10;;;;;;;7.80;75.97;100280.11;130394;1267;108759;-79
2022/02/11 09:54:35;;;;;;;17.50;11.20;;;;;;;7.82;75.94;100279.45;130309;1267;108852;-78
2022/02/11 09:57:44;;;;;;;14.30;10.50;;;;;;;7.90;76.27;100276.80;130327;1267;108666;-80
2022/02/11 10:00:52;;;;;;;15.30;10.80;;;;;;;7.98;76.07;100279.48;130386;1268;108742;-80
2022/02/11 10:04:13;;;;;;;16.40;11.70;;;;;;;8.03;75.84;100280.05;130338;1267;107255;-80
2022/02/11 10:07:18;;;;;;;29.00;20.40;;;;;;;8.04;75.98;100275.35;130360;1268;107818;-78
2022/02/11 10:14:21;;;;;;;17.30;13.00;;;;;;;8.03;75.78;100279.52;125732;1310;636135;-80
2022/02/11 10:17:26;;;;;;;19.60;15.10;;;;;;;7.98;75.94;100279.48;129134;1281;108562;-79
2022/02/11 10:20:35;;;;;;;14.60;12.00;;;;;;;7.93;75.75;100273.89;129160;1281;108775;-80
2022/02/11 10:23:42;;;;;;;15.00;10.00;;;;;;;7.89;76.09;100277.95;129189;1281;108842;-79
2022/02/11 10:26:50;;;;;;;17.90;11.90;;;;;;;7.84;75.90;100279.77;129078;1278;132658;-79
2022/02/11 10:29:58;;;;;;;18.80;11.00;;;;;;;7.76;75.85;100279.37;129188;1279;108850;-80
2022/02/11 10:33:03;;;;;;;26.30;16.40;;;;;;;7.64;75.41;100278.05;129184;1279;108951;-80
2022/02/11 10:36:17;;;;;;;18.80;13.00;;;;;;;7.53;75.73;100275.10;129160;1278;108987;-80
2022/02/11 10:39:25;;;;;;;13.90;10.40;;;;;;;7.38;75.22;100286.06;129195;1278;107819;-78
2022/02/11 10:42:48;;;;;;;18.70;12.70;;;;;;;7.13;75.46;100284.49;129203;1279;107534;-77
2022/02/11 10:45:52;;;;;;;;;;;;;;;6.83;75.62;100280.10;129191;1279;108846;-79
2022/02/11 10:49:01;;;;;;;18.80;12.80;;;;;;;6.50;75.45;100280.19;129183;1279;108945;-77
2022/02/11 10:52:15;;;;;;;16.30;11.80;;;;;;;6.13;76.03;100278.73;129136;1278;108791;-77
2022/02/11 10:55:26;;;;;;;13.40;8.80;;;;;;;5.78;75.87;100288.06;129165;1279;108719;-78
2022/02/11 10:58:32;;;;;;;11.20;7.90;;;;;;;5.45;76.26;100287.81;129171;1279;107717;-78
2022/02/11 11:01:38;;;;;;;11.20;7.40;;;;;;;5.25;76.38;100283.39;129210;1279;107056;-77
2022/02/11 11:04:45;;;;;;;10.50;6.80;;;;;;;5.01;76.72;100285.76;129186;1278;107697;-78
2022/02/11 11:07:52;;;;;;;10.90;6.90;;;;;;;4.80;76.64;100282.06;129194;1278;108616;-77
2022/02/11 11:11:01;;;;;;;8.90;5.60;;;;;;;4.70;76.79;100287.16;129245;1279;107494;-76
2022/02/11 11:14:08;;;;;;;8.70;6.20;;;;;;;4.51;76.76;100281.17;129003;1281;107585;-77
2022/02/11 11:17:16;;;;;;;10.80;6.50;;;;;;;4.34;77.54;100286.14;129039;1281;107429;-77
2022/02/11 11:20:23;;;;;;;21.30;12.20;;;;;;;4.17;78.15;100288.94;129175;1281;108894;-79
2022/02/11 11:23:31;;;;;;;11.10;7.70;;;;;;;4.12;78.09;100291.94;128987;1281;108735;-75
2022/02/11 11:26:39;;;;;;;8.40;5.40;;;;;;;4.09;78.08;100288.26;128999;1281;109059;-78
2022/02/11 11:29:44;;;;;;;11.80;7.40;;;;;;;3.95;77.98;100294.39;129039;1281;108933;-78
2022/02/11 11:33:25;;;;;;;11.30;6.60;;;;;;;3.79;77.98;100292.20;128994;1280;108640;-77
2022/02/11 11:36:35;;;;;;;9.90;6.80;;;;;;;3.69;78.65;100290.05;129036;1280;108741;-77
2022/02/11 11:39:41;;;;;;;6.80;4.50;;;;;;;3.53;78.92;100296.30;128940;1281;108892;-78
2022/02/11 11:42:47;;;;;;;7.10;5.00;;;;;;;3.41;78.42;100295.88;128943;1281;108896;-78
2022/02/11 11:46:05;;;;;;;8.30;5.70;;;;;;;3.43;78.71;100286.23;128944;1281;108841;-77
2022/02/11 11:49:15;;;;;;;8.40;5.50;;;;;;;3.42;78.16;100291.09;129172;1279;108371;-77
2022/02/11 11:52:21;;;;;;;9.40;5.20;;;;;;;3.43;78.41;100289.04;129516;1277;109198;-79
2022/02/11 11:55:26;;;;;;;7.20;4.50;;;;;;;3.51;77.86;100290.05;129508;1277;107221;-79
2022/02/11 11:58:45;;;;;;;8.30;5.00;;;;;;;3.54;77.68;100290.58;129535;1277;107744;-76
2022/02/11 12:02:00;;;;;;;21.30;15.50;;;;;;;3.67;77.57;100290.25;129516;1277;108862;-78
2022/02/11 12:05:07;;;;;;;8.70;6.00;;;;;;;3.77;77.56;100292.70;129550;1277;108764;-79
2022/02/11 12:08:12;;;;;;;13.60;9.30;;;;;;;3.81;77.36;100293.11;129491;1277;108903;-79
2022/02/11 12:11:18;;;;;;;9.20;6.10;;;;;;;3.81;77.22;100296.23;130108;1271;108661;-79
2022/02/11 12:14:25;;;;;;;10.70;7.80;;;;;;;3.74;77.03;100294.12;130163;1271;107596;-79
2022/02/11 12:17:32;;;;;;;20.50;16.00;;;;;;;3.72;77.31;100291.43;130201;1271;107508;-79
2022/02/11 12:20:38;;;;;;;12.70;7.40;;;;;;;3.80;77.00;100293.69;130209;1271;107735;-77
2022/02/11 12:27:24;;;;;;;18.70;11.20;;;;;;;3.68;77.09;100298.23;130176;1271;108877;-78
2022/02/11 12:30:29;;;;;;;18.10;10.40;;;;;;;3.61;76.97;100300.99;130303;1271;108797;-77
2022/02/11 12:33:37;;;;;;;12.60;7.80;;;;;;;3.57;77.22;100299.19;130238;1271;107790;-77
2022/02/11 12:36:42;;;;;;;18.50;12.30;;;;;;;3.59;77.24;100302.59;130164;1271;108734;-78
2022/02/11 12:39:59;;;;;;;16.20;9.70;;;;;;;3.63;77.09;100302.10;130220;1271;108774;-76
2022/02/11 12:43:06;;;;;;;13.50;8.60;;;;;;;3.62;77.02;100301.96;130259;1271;107615;-76
2022/02/11 12:46:12;;;;;;;14.70;9.20;;;;;;;3.56;76.86;100301.69;130142;1271;108715;-77
2022/02/11 12:49:18;;;;;;;11.80;7.60;;;;;;;3.51;77.02;100306.42;129763;1274;108662;-78
2022/02/11 12:52:24;;;;;;;15.10;9.90;;;;;;;3.47;77.19;100305.16;130018;1274;108947;-79
2022/02/11 12:55:36;;;;;;;23.20;13.30;;;;;;;3.43;77.07;100306.13;130176;1271;108866;-79
2022/02/11 12:58:41;;;;;;;27.80;17.50;;;;;;;3.41;77.24;100306.58;130208;1271;108885;-79
2022/02/11 13:01:47;;;;;;;26.90;16.30;;;;;;;3.40;77.10;100315.49;130275;1271;108812;-78
2022/02/11 13:05:06;;;;;;;22.80;14.30;;;;;;;3.35;77.10;100317.06;130819;1271;108702;-78
2022/02/11 13:08:19;;;;;;;25.50;15.70;;;;;;;3.33;77.19;100321.89;130989;1271;108790;-77
2022/02/11 13:11:27;;;;;;;26.00;15.80;;;;;;;3.36;77.26;100327.20;130420;1271;108528;-79
2022/02/11 13:14:33;;;;;;;26.70;15.60;;;;;;;3.35;77.19;100332.69;130457;1274;107644;-78
2022/02/11 13:17:38;;;;;;;26.30;16.70;;;;;;;3.28;77.15;100335.60;130554;1271;108787;-79
2022/02/11 13:20:45;;;;;;;24.00;15.60;;;;;;;3.23;77.31;100340.91;130179;1272;108727;-77
2022/02/11 13:23:52;;;;;;;23.40;15.20;;;;;;;3.14;77.56;100341.49;130482;1271;109850;-76
2022/02/11 13:27:00;;;;;;;22.00;12.80;;;;;;;3.04;77.47;100348.67;130101;1274;108831;-77
2022/02/11 13:30:07;;;;;;;28.70;17.20;;;;;;;3.00;77.52;100360.52;130144;1271;107383;-76
2022/02/11 13:33:24;;;;;;;25.70;16.60;;;;;;;2.99;77.93;100358.68;130196;1271;108679;-77
2022/02/11 13:36:29;;;;;;;21.00;14.70;;;;;;;2.91;77.96;100372.91;130218;1271;107311;-78
2022/02/11 13:39:35;;;;;;;20.70;14.40;;;;;;;2.83;77.87;100373.59;130194;1271;108843;-78
2022/02/11 13:42:40;;;;;;;19.80;14.00;;;;;;;2.77;77.89;100377.83;130213;1271;108664;-79
2022/02/11 13:45:57;;;;;;;28.20;17.80;;;;;;;2.75;77.99;100374.84;130198;1271;108808;-79
2022/02/11 13:49:08;;;;;;;17.30;11.40;;;;;;;2.81;77.97;100382.69;130180;1271;108578;-79
2022/02/11 13:55:36;;;;;;;15.40;10.40;;;;;;;2.72;78.06;100399.05;130181;1271;107734;-79
2022/02/11 13:59:02;;;;;;;29.00;19.90;;;;;;;2.72;78.07;100396.63;130257;1271;108885;-77
2022/02/11 14:02:09;;;;;;;17.80;12.20;;;;;;;2.70;78.13;100397.25;130159;1271;108896;-77
2022/02/11 14:05:15;;;;;;;15.20;10.40;;;;;;;2.59;78.38;100404.98;130128;1271;108704;-77
2022/02/11 14:08:21;;;;;;;15.20;10.60;;;;;;;2.48;78.79;100411.70;130172;1271;108854;-78
2022/02/11 14:11:27;;;;;;;17.20;12.10;;;;;;;2.42;78.93;100419.13;130202;1271;108503;-76
2022/02/11 14:14:33;;;;;;;12.90;9.00;;;;;;;2.40;78.71;100421.34;130178;1271;108495;-79
2022/02/11 14:17:40;;;;;;;13.60;8.60;;;;;;;2.46;79.13;100426.55;130147;1271;108689;-79
2022/02/11 14:20:45;;;;;;;14.00;9.80;;;;;;;2.41;79.24;100429.48;130083;1271;108782;-79
2022/02/11 14:23:51;;;;;;;15.10;9.30;;;;;;;2.33;79.47;100431.58;129986;1271;108924;-78
2022/02/11 14:26:56;;;;;;;13.20;8.10;;;;;;;2.30;79.41;100439.11;130030;1271;108722;-78
2022/02/11 14:30:03;;;;;;;15.60;8.40;;;;;;;2.29;79.53;100446.21;130139;1271;105659;-78
2022/02/11 14:33:10;;;;;;;16.50;9.00;;;;;;;2.23;79.62;100450.77;130160;1271;106986;-78
2022/02/11 14:36:15;;;;;;;13.20;8.20;;;;;;;2.21;79.73;100451.11;130166;1271;109204;-78
2022/02/11 14:39:21;;;;;;;11.10;7.40;;;;;;;2.21;79.61;100457.56;130185;1271;108820;-79
2022/02/11 14:42:26;;;;;;;10.40;7.10;;;;;;;2.26;80.06;100464.30;130187;1271;108809;-77
2022/02/11 14:45:32;;;;;;;11.80;7.50;;;;;;;2.22;79.73;100469.80;130189;1271;108910;-77
2022/02/11 14:48:38;;;;;;;11.60;7.50;;;;;;;2.25;79.78;100468.22;130159;1271;108669;-78
2022/02/11 14:51:44;;;;;;;13.90;9.30;;;;;;;2.40;79.59;100472.90;130203;1271;108793;-77
2022/02/11 14:54:51;;;;;;;16.60;9.50;;;;;;;2.38;79.48;100479.20;130204;1271;108580;-78
2022/02/11 14:57:58;;;;;;;15.10;9.60;;;;;;;2.29;79.60;100479.07;130250;1271;108855;-77
2022/02/11 15:01:06;;;;;;;14.80;8.70;;;;;;;2.31;79.72;100486.12;130168;1271;107494;-79
2022/02/11 15:04:12;;;;;;;107.20;43.80;;;;;;;2.32;79.77;100484.66;130231;1270;109599;-77
2022/02/11 15:07:19;;;;;;;91.50;45.70;;;;;;;2.36;79.64;100495.61;130129;1271;108862;-78
2022/02/11 15:10:24;;;;;;;25.50;13.50;;;;;;;2.48;79.55;100498.42;130042;1271;108779;-77
2022/02/11 15:13:30;;;;;;;33.20;18.60;;;;;;;2.48;79.68;100504.26;130225;1271;108690;-78
2022/02/11 15:16:38;;;;;;;293.00;117.60;;;;;;;2.45;79.70;100507.04;130123;1271;108722;-79
2022/02/11 15:19:44;;;;;;;29.20;17.70;;;;;;;2.48;79.51;100511.95;129988;1271;108924;-77
2022/02/11 15:22:49;;;;;;;55.00;25.40;;;;;;;2.44;79.72;100513.23;129970;1271;108940;-80
2022/02/11 15:25:54;;;;;;;189.40;73.20;;;;;;;2.49;79.61;100520.85;130036;1271;108727;-82
2022/02/11 15:29:00;;;;;;;304.40;120.50;;;;;;;2.54;79.54;100529.45;130141;1271;107669;-81
2022/02/11 15:32:07;;;;;;;125.80;53.80;;;;;;;2.50;79.70;100529.17;129965;1273;108755;-80
2022/02/11 15:35:13;;;;;;;47.80;21.90;;;;;;;2.45;79.61;100537.06;130326;1271;108821;-84
2022/02/11 15:38:19;;;;;;;86.10;36.70;;;;;;;2.37;79.69;100542.14;130166;1271;108750;-83
2022/02/11 15:41:24;;;;;;;59.00;29.30;;;;;;;2.28;79.88;100545.10;130395;1271;108027;-77
2022/02/11 15:44:30;;;;;;;15.60;10.80;;;;;;;2.25;80.10;100549.33;130183;1271;108572;-80
2022/02/11 15:47:35;;;;;;;12.60;7.70;;;;;;;2.22;80.03;100552.89;130055;1271;108843;-82
2022/02/11 15:50:42;;;;;;;17.30;11.60;;;;;;;2.17;79.96;100556.64;130206;1271;107754;-81
2022/02/11 15:53:47;;;;;;;16.40;11.10;;;;;;;2.22;80.22;100563.55;130284;1271;107770;-79
2022/02/11 15:56:52;;;;;;;17.20;11.30;;;;;;;2.24;80.04;100563.41;130164;1271;107704;-81
2022/02/11 16:00:00;;;;;;;16.20;10.80;;;;;;;2.29;79.92;100565.24;130191;1271;107649;-82
2022/02/11 16:03:06;;;;;;;19.90;12.60;;;;;;;2.31;79.88;100575.09;130115;1271;108678;-82
2022/02/11 16:06:12;;;;;;;25.70;17.20;;;;;;;2.39;79.94;100580.63;130042;1271;107823;-82
2022/02/11 16:09:17;;;;;;;24.40;17.10;;;;;;;2.43;79.80;100583.71;130133;1273;107658;-80
2022/02/11 16:12:23;;;;;;;19.80;11.10;;;;;;;2.52;79.73;100590.20;130047;1271;108753;-80
2022/02/11 16:15:28;;;;;;;21.40;13.90;;;;;;;2.53;79.88;100596.25;130151;1271;106719;-78
2022/02/11 16:18:35;;;;;;;21.40;13.00;;;;;;;2.55;79.62;100606.52;129971;1271;107603;-80
2022/02/11 16:21:40;;;;;;;20.50;13.90;;;;;;;2.55;79.75;100606.85;130120;1271;107762;-76
2022/02/11 16:24:46;;;;;;;45.70;30.20;;;;;;;2.59;79.69;100613.27;130333;1268;108684;-82
2022/02/11 16:27:53;;;;;;;32.70;20.10;;;;;;;2.62;79.63;100617.50;130515;1268;108807;-80
2022/02/11 16:31:17;;;;;;;52.30;28.30;;;;;;;2.63;79.56;100623.25;130934;1268;108942;-80
2022/02/11 16:34:24;;;;;;;28.20;17.70;;;;;;;2.68;79.47;100624.88;130414;1268;106797;-79
2022/02/11 16:37:30;;;;;;;40.00;23.20;;;;;;;2.71;79.66;100628.56;130416;1268;108735;-77
2022/02/11 16:40:36;;;;;;;39.90;20.70;;;;;;;2.74;79.78;100635.56;130357;1268;108433;-79
2022/02/11 16:43:42;;;;;;;79.60;37.50;;;;;;;2.67;79.56;100643.89;130413;1268;107945;-79
2022/02/11 16:46:48;;;;;;;43.20;24.60;;;;;;;2.54;79.88;100646.98;130621;1268;107818;-76
2022/02/11 16:49:54;;;;;;;26.10;18.60;;;;;;;2.41;80.01;100651.26;130512;1268;107658;-80
2022/02/11 16:53:00;;;;;;;29.40;14.70;;;;;;;2.44;80.10;100647.74;130387;1268;108583;-79
2022/02/11 16:56:08;;;;;;;19.80;12.00;;;;;;;2.42;80.16;100655.58;130681;1268;108709;-80
2022/02/11 16:59:15;;;;;;;25.10;13.80;;;;;;;2.43;80.22;100662.19;131502;1268;108697;-80
2022/02/11 17:02:21;;;;;;;48.50;27.80;;;;;;;2.50;80.22;100662.15;130952;1268;109025;-75
2022/02/11 17:05:28;;;;;;;53.60;28.30;;;;;;;2.49;80.06;100664.63;130700;1268;108530;-76
2022/02/11 17:08:37;;;;;;;90.50;43.00;;;;;;;2.51;80.13;100666.12;130905;1268;107691;-77
2022/02/11 17:11:42;;;;;;;103.00;49.90;;;;;;;2.50;80.03;100667.58;130741;1268;106809;-77
2022/02/11 17:14:48;;;;;;;107.40;46.90;;;;;;;2.48;80.13;100667.15;130592;1268;108573;-77
2022/02/11 17:17:55;;;;;;;72.00;34.30;;;;;;;2.47;80.15;100673.91;130709;1268;108711;-76
2022/02/11 17:21:01;;;;;;;79.50;36.20;;;;;;;2.48;80.14;100682.93;130510;1268;107830;-79